createdAt,value
2018-08-31T00:01:16.168Z,84.30
2018-08-31T00:04:58.395Z,84.70
2018-08-31T00:10:57.582Z,84.70
2018-08-31T00:13:28.899Z,84.70
2018-08-31T00:18:47.145Z,84.60
2018-08-31T00:21:17.631Z,84.30
2018-08-31T00:24:03.391Z,84.50
2018-08-31T00:26:44.637Z,84.20
2018-08-31T00:29:52.436Z,84.10
2018-08-31T00:33:04.181Z,84.30
2018-08-31T00:35:51.596Z,84.50
2018-08-31T00:39:31.380Z,85.00
2018-08-31T00:42:15.515Z,85.10
2018-08-31T00:45:53.354Z,85.20
2018-08-31T00:48:23.976Z,85.10
2018-08-31T00:50:54.596Z,85.40
2018-08-31T00:53:32.138Z,85.60
2018-08-31T00:56:07.777Z,85.40
2018-08-31T00:58:41.280Z,85.50
2018-08-31T01:27:58.527Z,86.60
2018-08-31T01:59:16.129Z,87.60
2018-08-31T02:05:55.310Z,87.70
2018-08-31T02:18:11.414Z,88.30
2018-08-31T02:29:04.111Z,88.80
2018-08-31T02:37:17.932Z,89.20
2018-08-31T03:03:36.709Z,89.20
2018-08-31T03:06:15.756Z,90.10
2018-08-31T03:08:56.403Z,90.20
2018-08-31T03:14:18.372Z,90.20
2018-08-31T03:16:49.149Z,90.50
2018-08-31T03:19:26.779Z,90.30
2018-08-31T03:21:59.524Z,90.20
2018-08-31T03:24:36.142Z,90.20
2018-08-31T03:53:33.260Z,90.50
2018-08-31T03:56:13.209Z,90.50
2018-08-31T03:58:44.371Z,90.50
2018-08-31T04:01:18.323Z,90.50
2018-08-31T04:03:50.870Z,90.90
2018-08-31T04:06:27.731Z,90.40
2018-08-31T04:09:03.763Z,90.40
2018-08-31T04:11:38.604Z,90.40
2018-08-31T04:16:59.273Z,90.40
2018-08-31T04:22:27.578Z,90.30
2018-08-31T04:25:00.453Z,90.40
2018-08-31T04:27:39.978Z,90.40
2018-08-31T04:30:13.804Z,90.30
2018-08-31T04:32:55.374Z,90.40
2018-08-31T04:48:30.318Z,90.40
2018-08-31T04:54:35.867Z,90.20
2018-08-31T04:59:57.875Z,90.30
2018-08-31T05:02:34.371Z,90.20
2018-08-31T05:05:15.851Z,90.10
2018-08-31T05:08:08.485Z,90.10
2018-08-31T05:13:39.111Z,89.80
2018-08-31T05:27:28.810Z,88.60
2018-08-31T05:37:24.502Z,86.90
2018-08-31T05:40:05.756Z,86.70
2018-08-31T05:45:22.822Z,86.10
2018-08-31T05:48:03.738Z,85.50
2018-08-31T05:50:36.296Z,85.50
2018-08-31T05:53:15.102Z,84.80
2018-08-31T05:55:59.189Z,84.70
2018-08-31T05:58:38.637Z,84.60
2018-08-31T06:01:10.111Z,84.10
2018-08-31T06:06:34.165Z,84.10
2018-08-31T06:09:07.861Z,83.90
2018-08-31T06:11:37.803Z,83.20
2018-08-31T06:14:09.265Z,83.00
2018-08-31T06:19:21.537Z,82.00
2018-08-31T06:21:57.967Z,82.60
2018-08-31T06:38:10.354Z,83.20
2018-08-31T06:43:27.370Z,81.40
2018-08-31T06:48:29.321Z,80.20
2018-08-31T07:05:07.966Z,79.90
2018-08-31T07:07:38.881Z,81.40
2018-08-31T07:10:08.075Z,81.70
2018-08-31T07:12:40.413Z,81.00
2018-08-31T07:15:11.748Z,80.90
2018-08-31T07:17:41.104Z,82.40
2018-08-31T07:20:10.924Z,81.70
2018-08-31T07:22:41.079Z,81.50
2018-08-31T07:25:11.713Z,81.50
2018-08-31T07:27:41.450Z,81.70
2018-08-31T07:30:12.802Z,81.30
2018-08-31T07:32:44.061Z,81.00
2018-08-31T07:35:15.717Z,81.30
2018-08-31T07:37:48.490Z,80.70
2018-08-31T07:40:21.521Z,80.70
2018-08-31T07:42:52.474Z,80.30
2018-08-31T07:45:23.898Z,80.40
2018-08-31T07:47:57.118Z,80.20
2018-08-31T07:50:27.846Z,80.70
2018-08-31T07:52:57.886Z,80.90
2018-08-31T07:55:27.754Z,80.70
2018-08-31T07:57:57.835Z,80.70
2018-08-31T08:00:29.546Z,80.40
2018-08-31T08:02:58.870Z,79.60
2018-08-31T08:05:29.185Z,79.10
2018-08-31T08:08:00.261Z,78.20
2018-08-31T08:10:33.918Z,77.30
2018-08-31T08:13:06.938Z,76.90
2018-08-31T08:15:39.605Z,77.20
2018-08-31T08:26:26.233Z,75.50
2018-08-31T08:28:56.846Z,75.00
2018-08-31T08:31:26.203Z,74.90
2018-08-31T08:33:55.669Z,74.70
2018-08-31T08:36:25.814Z,74.90
2018-08-31T08:38:54.980Z,75.40
2018-08-31T08:45:00.982Z,76.20
2018-08-31T08:47:31.054Z,75.70
2018-08-31T08:50:02.874Z,75.00
2018-08-31T09:08:14.240Z,70.10
2018-08-31T09:10:44.151Z,67.40
2018-08-31T09:13:13.547Z,67.20
2018-08-31T09:15:44.627Z,66.90
2018-08-31T09:18:23.135Z,67.50
2018-08-31T09:20:54.558Z,69.10
2018-08-31T09:23:27.701Z,69.00
2018-08-31T09:26:06.493Z,68.00
2018-08-31T09:28:37.995Z,66.60
2018-08-31T09:31:13.329Z,64.80
2018-08-31T09:33:43.112Z,63.20
2018-08-31T09:36:17.079Z,61.30
2018-08-31T09:38:49.441Z,62.80
2018-08-31T09:41:22.149Z,62.80
2018-08-31T09:43:58.134Z,61.00
2018-08-31T09:46:27.439Z,61.00
2018-08-31T09:48:57.374Z,59.00
2018-08-31T09:51:27.222Z,59.40
2018-08-31T09:53:56.885Z,60.60
2018-08-31T09:56:27.722Z,60.20
2018-08-31T09:58:56.644Z,58.70
2018-08-31T10:01:31.672Z,58.10
2018-08-31T10:04:02.946Z,57.30
2018-08-31T10:06:34.617Z,57.90
2018-08-31T10:09:18.289Z,59.90
2018-08-31T10:11:48.294Z,60.80
2018-08-31T10:14:18.594Z,61.60
2018-08-31T10:16:48.007Z,61.30
2018-08-31T10:19:17.224Z,59.50
2018-08-31T10:21:46.850Z,58.40
2018-08-31T10:24:16.162Z,56.50
2018-08-31T10:26:58.487Z,56.00
2018-08-31T10:29:30.492Z,55.80
2018-08-31T10:31:59.846Z,56.70
2018-08-31T10:34:28.962Z,56.50
2018-08-31T10:36:58.490Z,56.90
2018-08-31T10:39:29.815Z,56.60
2018-08-31T10:41:59.816Z,57.30
2018-08-31T10:47:10.029Z,56.30
2018-08-31T10:49:39.804Z,56.10
2018-08-31T10:52:09.420Z,55.30
2018-08-31T10:54:39.171Z,57.30
2018-08-31T10:57:09.397Z,57.20
2018-08-31T10:59:39.941Z,54.90
2018-08-31T11:02:09.914Z,53.70
2018-08-31T11:04:40.292Z,50.90
2018-08-31T11:07:09.736Z,49.30
2018-08-31T11:09:38.991Z,50.70
2018-08-31T11:12:08.179Z,50.10
2018-08-31T11:14:37.651Z,48.40
2018-08-31T11:17:07.881Z,49.10
2018-08-31T11:19:41.184Z,51.20
2018-08-31T11:22:10.480Z,49.60
2018-08-31T11:24:40.370Z,49.30
2018-08-31T11:27:09.672Z,51.90
2018-08-31T11:29:39.614Z,54.00
2018-08-31T11:32:08.796Z,54.20
2018-08-31T11:34:39.244Z,51.40
2018-08-31T11:37:08.705Z,51.80
2018-08-31T11:39:39.045Z,51.70
2018-08-31T11:42:08.501Z,52.40
2018-08-31T11:44:37.599Z,54.40
2018-08-31T11:47:07.115Z,54.20
2018-08-31T11:49:36.445Z,52.80
2018-08-31T11:52:06.259Z,50.40
2018-08-31T11:54:35.289Z,49.50
2018-08-31T11:57:05.338Z,48.20
2018-08-31T11:59:34.727Z,45.50
2018-08-31T12:02:04.022Z,45.20
2018-08-31T12:04:33.180Z,45.70
2018-08-31T12:07:03.742Z,47.30
2018-08-31T12:09:32.837Z,47.80
2018-08-31T12:12:01.897Z,49.30
2018-08-31T12:14:32.991Z,51.70
2018-08-31T12:17:02.378Z,53.50
2018-08-31T12:19:32.127Z,52.80
2018-08-31T12:22:01.514Z,53.70
2018-08-31T12:24:30.840Z,54.30
2018-08-31T12:27:00.286Z,53.30
2018-08-31T12:29:29.602Z,52.50
2018-08-31T12:31:58.760Z,52.50
2018-08-31T12:34:28.238Z,53.50
2018-08-31T12:36:57.418Z,54.00
2018-08-31T12:39:27.341Z,54.60
2018-08-31T12:41:56.975Z,53.50
2018-08-31T12:44:26.185Z,52.30
2018-08-31T12:46:55.303Z,51.00
2018-08-31T12:49:24.394Z,49.70
2018-08-31T12:51:53.721Z,48.90
2018-08-31T12:54:28.406Z,48.60
2018-08-31T12:56:59.166Z,47.30
2018-08-31T12:59:28.361Z,46.80
2018-08-31T13:01:57.785Z,45.50
2018-08-31T13:04:27.143Z,46.60
2018-08-31T13:06:57.551Z,46.60
2018-08-31T13:09:26.456Z,46.20
2018-08-31T13:11:55.477Z,48.30
2018-08-31T13:14:24.743Z,49.40
2018-08-31T13:16:54.258Z,48.20
2018-08-31T13:19:27.623Z,47.70
2018-08-31T13:21:57.204Z,48.40
2018-08-31T13:27:17.298Z,48.70
2018-08-31T13:32:33.128Z,47.00
2018-08-31T13:54:21.113Z,48.00
2018-08-31T13:56:50.301Z,44.40
2018-08-31T13:59:19.701Z,44.60
2018-08-31T14:01:48.846Z,43.40
2018-08-31T14:04:18.455Z,43.90
2018-08-31T14:06:48.395Z,44.30
2018-08-31T14:09:17.891Z,43.60
2018-08-31T14:11:48.915Z,43.90
2018-08-31T14:14:18.547Z,43.60
2018-08-31T14:16:48.131Z,41.60
2018-08-31T14:19:17.339Z,40.80
2018-08-31T14:21:50.224Z,41.30
2018-08-31T14:24:20.326Z,42.00
2018-08-31T14:26:49.456Z,41.60
2018-08-31T14:29:18.532Z,42.80
2018-08-31T14:31:47.889Z,43.40
2018-08-31T14:34:17.038Z,43.60
2018-08-31T14:36:46.290Z,43.90
2018-08-31T14:39:15.840Z,43.70
2018-08-31T14:41:44.814Z,45.10
2018-08-31T14:44:18.280Z,45.00
2018-08-31T14:46:48.508Z,45.80
2018-08-31T14:49:19.139Z,46.10
2018-08-31T14:51:49.048Z,46.10
2018-08-31T14:54:18.110Z,44.70
2018-08-31T14:56:47.198Z,44.60
2018-08-31T14:59:17.967Z,43.60
2018-08-31T15:01:47.189Z,42.80
2018-08-31T15:04:16.654Z,42.60
2018-08-31T15:06:46.328Z,43.10
2018-08-31T15:09:16.009Z,43.80
2018-08-31T15:11:47.653Z,44.60
2018-08-31T15:14:17.043Z,44.60
2018-08-31T15:16:46.959Z,45.00
2018-08-31T15:19:16.199Z,44.70
2018-08-31T15:21:45.304Z,45.40
2018-08-31T15:24:14.849Z,45.60
2018-08-31T15:26:46.981Z,45.10
2018-08-31T15:29:16.932Z,45.60
2018-08-31T15:31:54.861Z,45.00
2018-08-31T15:34:32.940Z,44.90
2018-08-31T15:37:09.708Z,44.80
2018-08-31T15:39:45.875Z,44.80
2018-08-31T15:45:02.488Z,44.50
2018-08-31T15:47:40.892Z,44.50
2018-08-31T15:50:11.506Z,45.10
2018-08-31T15:52:45.288Z,45.80
2018-08-31T15:55:16.188Z,46.20
2018-08-31T15:57:46.604Z,46.40
2018-08-31T16:00:16.858Z,45.80
2018-08-31T16:02:48.745Z,46.10
2018-08-31T16:05:18.296Z,46.30
2018-08-31T16:07:48.569Z,46.90
2018-08-31T16:10:19.132Z,47.30
2018-08-31T16:12:50.114Z,47.40
2018-08-31T16:15:19.829Z,47.40
2018-08-31T16:17:48.912Z,46.50
2018-08-31T16:20:18.169Z,46.00
2018-08-31T16:22:47.137Z,45.20
2018-08-31T16:25:23.647Z,45.20
2018-08-31T16:27:52.789Z,45.30
2018-08-31T16:30:22.289Z,45.30
2018-08-31T16:32:51.386Z,45.10
2018-08-31T16:35:30.206Z,44.50
2018-08-31T16:38:06.343Z,43.40
2018-08-31T17:13:29.579Z,42.90
2018-08-31T17:16:01.948Z,44.40
2018-08-31T17:18:35.276Z,44.60
2018-08-31T17:21:04.784Z,44.80
2018-08-31T17:23:39.786Z,45.30
2018-08-31T17:26:13.603Z,45.80
2018-08-31T17:28:52.882Z,46.00
2018-08-31T17:31:27.499Z,46.20
2018-08-31T17:34:02.399Z,46.40
2018-08-31T17:36:37.371Z,47.20
2018-08-31T17:39:09.277Z,46.40
2018-08-31T17:46:39.834Z,46.50
2018-08-31T17:49:09.557Z,47.40
2018-08-31T17:51:42.748Z,47.90
2018-08-31T17:54:14.005Z,48.30
2018-08-31T17:56:48.565Z,48.50
2018-08-31T17:59:19.437Z,48.60
2018-08-31T18:01:48.678Z,49.00
2018-08-31T18:04:18.082Z,49.30
2018-08-31T18:06:48.164Z,49.30
2018-08-31T18:09:17.980Z,49.40
2018-08-31T18:11:47.658Z,49.80
2018-08-31T18:14:19.623Z,49.60
2018-08-31T18:16:50.066Z,49.40
2018-08-31T18:21:59.463Z,49.70
2018-08-31T18:24:29.430Z,50.00
2018-08-31T18:26:59.827Z,50.00
2018-08-31T18:29:33.518Z,50.30
2018-08-31T18:32:07.999Z,50.60
2018-08-31T18:34:40.687Z,50.80
2018-08-31T18:37:19.361Z,51.10
2018-08-31T18:39:51.249Z,51.10
2018-08-31T18:42:24.865Z,50.80
2018-08-31T18:45:02.753Z,50.90
2018-08-31T18:47:33.105Z,50.90
2018-08-31T18:50:10.071Z,51.10
2018-08-31T18:52:48.466Z,51.00
2018-08-31T18:55:29.292Z,51.50
2018-08-31T18:58:02.506Z,51.40
2018-08-31T19:00:38.882Z,51.50
2018-08-31T19:03:09.860Z,51.70
2018-08-31T19:05:41.163Z,51.80
2018-08-31T19:08:10.501Z,51.80
2018-08-31T19:10:41.040Z,51.90
2018-08-31T19:13:12.393Z,52.00
2018-08-31T19:15:42.594Z,52.00
2018-08-31T19:18:12.730Z,51.90
2018-08-31T19:20:45.571Z,52.40
2018-08-31T19:23:16.928Z,52.50
2018-08-31T19:25:45.994Z,52.50
2018-08-31T19:28:18.200Z,52.70
2018-08-31T19:30:47.360Z,52.50
2018-08-31T19:33:16.883Z,52.70
2018-08-31T19:35:47.852Z,52.90
2018-08-31T19:38:19.579Z,52.90
2018-08-31T19:40:49.815Z,53.20
2018-08-31T19:43:20.222Z,53.00
2018-08-31T19:45:49.649Z,53.30
2018-08-31T19:48:19.283Z,53.30
2018-08-31T19:50:53.421Z,53.40
2018-08-31T19:53:22.534Z,53.50
2018-08-31T19:55:52.329Z,53.70
2018-08-31T19:58:22.006Z,53.80
2018-08-31T20:00:51.785Z,53.90
2018-08-31T20:03:26.337Z,53.90
2018-08-31T20:05:55.538Z,54.30
2018-08-31T20:08:24.755Z,54.40
2018-08-31T20:11:02.154Z,54.30
2018-08-31T20:20:56.864Z,54.30
2018-08-31T20:23:27.608Z,55.50
2018-08-31T20:25:57.252Z,55.70
2018-08-31T20:28:26.577Z,56.40
2018-08-31T20:30:56.351Z,55.90
2018-08-31T20:33:25.983Z,56.70
2018-08-31T20:35:56.576Z,56.70
2018-08-31T20:38:25.887Z,57.30
2018-08-31T20:40:55.716Z,57.50
2018-08-31T20:43:25.186Z,57.50
2018-08-31T20:45:54.600Z,57.80
2018-08-31T20:48:23.751Z,58.20
2018-08-31T20:50:52.812Z,58.10
2018-08-31T20:53:22.112Z,58.00
2018-08-31T20:55:51.176Z,57.50
2018-08-31T20:58:20.664Z,57.60
2018-08-31T21:00:49.681Z,57.50
2018-08-31T21:03:21.505Z,58.60
2018-08-31T21:05:50.627Z,58.20
2018-08-31T21:08:19.572Z,58.50
2018-08-31T21:10:50.501Z,58.70
2018-08-31T21:13:19.777Z,58.70
2018-08-31T21:15:49.017Z,58.80
2018-08-31T21:18:19.592Z,59.20
2018-08-31T21:20:49.558Z,59.50
2018-08-31T21:23:18.480Z,59.50
2018-08-31T21:25:47.587Z,59.50
2018-08-31T21:28:17.199Z,60.00
2018-08-31T21:33:21.394Z,60.10
2018-08-31T21:35:50.687Z,60.20
2018-08-31T21:38:20.493Z,60.30
2018-08-31T21:40:50.412Z,60.60
2018-08-31T21:43:19.847Z,60.50
2018-08-31T21:45:49.276Z,60.70
2018-08-31T21:48:19.668Z,60.50
2018-08-31T21:50:49.812Z,60.80
2018-08-31T21:53:20.382Z,61.00
2018-08-31T21:55:49.368Z,61.30
2018-08-31T21:58:18.788Z,61.60
2018-08-31T22:00:48.759Z,61.80
2018-08-31T22:03:17.922Z,61.30
2018-08-31T22:05:48.016Z,60.70
2018-08-31T22:10:44.422Z,60.70
2018-08-31T22:13:13.837Z,60.50
2018-08-31T22:15:43.334Z,60.80
2018-08-31T22:18:12.419Z,60.60
2018-08-31T22:20:46.522Z,60.80
2018-08-31T22:23:16.433Z,60.10
2018-08-31T22:25:45.735Z,59.50
2018-08-31T22:28:14.933Z,59.40
2018-08-31T22:30:43.984Z,59.30
2018-08-31T22:33:13.897Z,59.80
2018-08-31T22:35:43.009Z,59.60
2018-08-31T22:38:12.149Z,59.70
2018-08-31T22:40:41.641Z,59.60
2018-08-31T22:43:10.675Z,60.40
2018-08-31T22:49:56.516Z,60.50
2018-08-31T22:52:27.011Z,59.90
2018-08-31T22:54:56.797Z,59.90
2018-08-31T22:57:25.938Z,60.10
2018-08-31T22:59:56.477Z,60.30
2018-08-31T23:02:25.725Z,60.30
2018-08-31T23:04:56.020Z,60.50
2018-08-31T23:07:30.563Z,60.20
2018-08-31T23:09:59.596Z,60.80
2018-08-31T23:12:28.760Z,61.20
2018-08-31T23:14:57.737Z,61.80
2018-08-31T23:17:28.422Z,61.00
2018-08-31T23:19:58.939Z,61.10
2018-08-31T23:22:29.746Z,61.10
2018-08-31T23:25:00.412Z,61.60
2018-08-31T23:27:30.673Z,61.20
2018-08-31T23:29:59.736Z,61.40
2018-08-31T23:32:30.259Z,61.60
2018-08-31T23:34:59.341Z,61.20
2018-08-31T23:37:28.410Z,61.70
2018-08-31T23:39:57.599Z,61.80
2018-08-31T23:42:26.686Z,61.90
2018-08-31T23:44:56.229Z,61.60
2018-08-31T23:50:32.887Z,61.50
2018-08-31T23:53:02.414Z,61.00
2018-08-31T23:55:36.613Z,61.00
2018-08-31T23:58:05.671Z,60.70
